Time;durP1;ratioP1;P1;durP2;ratioP2;P2;SDS_P1;SDS_P2;PMS_P1;PMS_P2;Temp;Humidity;BMP_temperature;BMP_pressure;BME280_temperature;BME280_humidity;BME280_pressure;Samples;Min_cycle;Max_cycle;Signal;HPM_P1;HPM_P2
2022/05/08 00:00:03;;;;;;;22.25;4.95;;;9.30;99.90;;;;;;4992649;28;20474;-66
2022/05/08 00:02:28;;;;;;;17.92;4.20;;;9.30;99.90;;;;;;5004757;28;20070;-66
2022/05/08 00:04:54;;;;;;;18.73;4.18;;;9.80;99.90;;;;;;5000931;28;20073;-66
2022/05/08 00:07:21;;;;;;;17.92;4.15;;;9.20;99.90;;;;;;4994987;28;20538;-67
2022/05/08 00:09:47;;;;;;;19.50;4.32;;;9.20;99.90;;;;;;5000183;28;20050;-67
2022/05/08 00:12:15;;;;;;;19.38;4.15;;;9.20;99.90;;;;;;4989386;28;20038;-67
2022/05/08 00:14:41;;;;;;;21.23;4.70;;;9.20;99.90;;;;;;4990281;28;20121;-67
2022/05/08 00:17:11;;;;;;;15.98;4.00;;;9.20;99.90;;;;;;5007335;28;20105;-66
2022/05/08 00:19:41;;;;;;;21.67;4.40;;;9.10;99.90;;;;;;5011703;28;20416;-67
2022/05/08 00:22:07;;;;;;;18.65;4.63;;;9.10;99.90;;;;;;5010326;28;20485;-67
2022/05/08 00:24:35;;;;;;;14.82;4.05;;;9.10;99.90;;;;;;4990331;28;20046;-67
2022/05/08 00:27:01;;;;;;;15.80;4.10;;;9.20;99.90;;;;;;4992526;28;20149;-67
2022/05/08 00:29:27;;;;;;;17.52;4.03;;;9.10;99.90;;;;;;4989677;28;20160;-67
2022/05/08 00:31:52;;;;;;;20.17;4.60;;;9.20;99.90;;;;;;5008446;28;20208;-67
2022/05/08 00:34:18;;;;;;;14.52;3.90;;;9.10;99.90;;;;;;5009371;28;20061;-67
2022/05/08 00:36:44;;;;;;;21.25;4.47;;;9.10;99.90;;;;;;5009471;28;20061;-66
2022/05/08 00:39:09;;;;;;;14.93;4.13;;;9.00;99.90;;;;;;5007927;28;20384;-66
2022/05/08 00:41:35;;;;;;;22.95;3.95;;;9.10;99.90;;;;;;5009227;28;20042;-66
2022/05/08 00:44:02;;;;;;;18.13;4.18;;;9.00;99.90;;;;;;5007734;28;20041;-66
2022/05/08 00:46:29;;;;;;;23.30;5.10;;;9.00;99.90;;;;;;5008916;28;20073;-66
2022/05/08 00:48:55;;;;;;;14.90;4.47;;;8.90;99.90;;;;;;5008966;28;20054;-66
2022/05/08 00:51:21;;;;;;;16.92;4.63;;;8.90;99.90;;;;;;4989319;28;20862;-66
2022/05/08 00:53:51;;;;;;;18.27;4.00;;;8.90;99.90;;;;;;5008294;28;20490;-67
2022/05/08 00:56:17;;;;;;;20.40;3.88;;;8.90;99.90;;;;;;5007811;28;20048;-68
2022/05/08 00:58:46;;;;;;;15.43;3.67;;;8.90;99.90;;;;;;4998976;28;20065;-67
2022/05/08 01:01:13;;;;;;;15.73;3.30;;;8.90;99.90;;;;;;4988908;28;20042;-67
2022/05/08 01:03:39;;;;;;;17.38;3.75;;;9.20;99.90;;;;;;5003350;28;20095;-67
2022/05/08 01:06:07;;;;;;;18.20;4.00;;;8.80;99.90;;;;;;5004842;28;20407;-67
2022/05/08 01:08:35;;;;;;;16.92;4.07;;;8.80;99.90;;;;;;5008173;28;20080;-67
2022/05/08 01:11:06;;;;;;;18.23;3.60;;;8.80;99.90;;;;;;5008178;28;20089;-67
2022/05/08 01:13:31;;;;;;;23.17;4.88;;;8.80;99.90;;;;;;4990014;28;20497;-67
2022/05/08 01:15:57;;;;;;;15.43;3.53;;;8.70;99.90;;;;;;5007897;28;20056;-67
2022/05/08 01:18:24;;;;;;;13.07;3.55;;;8.80;99.90;;;;;;5007548;28;20149;-67
2022/05/08 01:20:50;;;;;;;13.85;3.50;;;8.70;99.90;;;;;;5007568;28;20443;-67
2022/05/08 01:23:18;;;;;;;13.45;3.55;;;10.00;99.90;;;;;;4989597;28;20046;-67
2022/05/08 01:25:49;;;;;;;18.20;4.10;;;8.70;99.90;;;;;;5008540;28;20041;-67
2022/05/08 01:28:16;;;;;;;16.75;3.17;;;8.70;99.90;;;;;;5005759;28;20069;-66
2022/05/08 01:30:46;;;;;;;11.57;3.63;;;8.70;99.90;;;;;;4988646;28;20042;-67
2022/05/08 01:33:12;;;;;;;15.93;4.05;;;8.70;99.90;;;;;;4989111;28;20137;-66
2022/05/08 01:35:39;;;;;;;14.80;3.58;;;8.70;99.90;;;;;;5007884;28;20475;-66
2022/05/08 01:38:05;;;;;;;12.73;3.80;;;8.60;99.90;;;;;;5007447;28;20048;-67
2022/05/08 01:40:31;;;;;;;13.15;3.53;;;8.70;99.90;;;;;;5007940;28;20054;-67
2022/05/08 01:42:57;;;;;;;15.80;3.60;;;8.60;99.90;;;;;;5007718;28;20053;-67
2022/05/08 01:45:23;;;;;;;16.85;3.67;;;8.60;99.90;;;;;;5007054;28;20038;-67
2022/05/08 01:50:34;;;;;;;22.27;4.07;;;8.50;99.90;;;;;;5008044;28;20426;-67
2022/05/08 01:52:59;;;;;;;10.10;3.65;;;8.50;99.90;;;;;;5007570;28;20052;-66
2022/05/08 01:55:25;;;;;;;15.80;3.60;;;8.50;99.90;;;;;;5007776;28;20034;-68
2022/05/08 01:57:50;;;;;;;19.85;4.07;;;8.40;99.90;;;;;;5007330;28;20096;-66
2022/05/08 02:00:16;;;;;;;13.00;4.00;;;8.40;99.90;;;;;;4989918;28;20120;-66
2022/05/08 02:02:44;;;;;;;14.38;3.85;;;8.40;99.90;;;;;;4990242;28;20053;-66
2022/05/08 02:05:10;;;;;;;15.48;3.67;;;8.40;99.90;;;;;;5007602;28;20061;-66
2022/05/08 02:07:35;;;;;;;15.98;3.80;;;8.30;99.90;;;;;;5007596;28;20043;-66
2022/05/08 02:10:02;;;;;;;15.90;4.10;;;8.30;99.90;;;;;;5007672;28;20052;-66
2022/05/08 02:12:27;;;;;;;14.48;3.83;;;8.30;99.90;;;;;;5007382;28;20479;-66
2022/05/08 02:14:53;;;;;;;14.05;3.50;;;8.20;99.90;;;;;;5008218;28;20143;-66
2022/05/08 02:17:19;;;;;;;13.00;4.05;;;8.20;99.90;;;;;;5006899;28;20494;-66
2022/05/08 02:19:44;;;;;;;15.30;4.20;;;8.20;99.90;;;;;;5007084;28;20081;-66
2022/05/08 02:22:10;;;;;;;16.92;3.55;;;8.20;99.90;;;;;;5008289;28;20053;-67
2022/05/08 02:24:35;;;;;;;16.88;3.60;;;9.40;99.90;;;;;;5006531;28;20045;-67
2022/05/08 02:27:01;;;;;;;15.15;3.58;;;8.20;99.90;;;;;;5008212;28;20136;-67
2022/05/08 02:29:27;;;;;;;12.93;3.50;;;8.10;99.90;;;;;;5006443;28;20121;-67
2022/05/08 02:31:52;;;;;;;13.00;3.60;;;8.10;99.90;;;;;;4989929;28;20045;-67
2022/05/08 02:34:18;;;;;;;10.93;3.45;;;8.10;99.90;;;;;;5007054;28;20041;-66
2022/05/08 02:36:44;;;;;;;15.73;3.55;;;8.10;99.90;;;;;;5006857;28;20038;-66
2022/05/08 02:39:10;;;;;;;12.60;3.83;;;8.10;99.90;;;;;;5007226;28;20054;-67
2022/05/08 02:41:35;;;;;;;11.77;3.60;;;8.10;99.90;;;;;;5010929;28;20042;-67
2022/05/08 02:44:01;;;;;;;11.65;3.65;;;8.00;99.90;;;;;;5010570;28;20045;-67
2022/05/08 02:46:26;;;;;;;14.98;3.67;;;8.00;99.90;;;;;;5010695;28;20123;-67
2022/05/08 02:48:52;;;;;;;16.63;3.95;;;8.00;99.90;;;;;;4993766;28;20050;-67
2022/05/08 02:51:18;;;;;;;14.00;3.63;;;8.00;99.90;;;;;;5010358;28;20080;-67
2022/05/08 02:53:43;;;;;;;16.20;4.10;;;8.00;99.90;;;;;;5009839;28;20494;-67
2022/05/08 02:58:53;;;;;;;13.95;4.07;;;8.40;99.90;;;;;;5010505;28;20050;-67
2022/05/08 03:01:18;;;;;;;14.48;3.83;;;8.00;99.90;;;;;;5011125;28;20505;-67
2022/05/08 03:03:44;;;;;;;16.33;3.78;;;7.90;99.90;;;;;;4996075;28;20531;-67
2022/05/08 03:06:13;;;;;;;14.35;3.85;;;8.00;99.90;;;;;;5003264;28;20363;-67
2022/05/08 03:08:38;;;;;;;14.02;3.65;;;8.00;99.90;;;;;;5009792;28;20072;-67
2022/05/08 03:13:48;;;;;;;18.10;3.80;;;7.90;99.90;;;;;;5011465;28;20053;-67
2022/05/08 03:16:13;;;;;;;16.98;3.90;;;7.90;99.90;;;;;;5011081;28;20057;-67
2022/05/08 03:18:40;;;;;;;14.82;3.42;;;7.90;99.90;;;;;;5009640;28;20455;-66
2022/05/08 03:21:07;;;;;;;14.52;3.60;;;7.90;99.90;;;;;;5010517;28;20046;-66
2022/05/08 03:23:34;;;;;;;12.30;3.42;;;7.90;99.90;;;;;;5009709;28;20558;-66
2022/05/08 03:26:00;;;;;;;9.32;3.13;;;7.90;99.90;;;;;;5009849;28;20038;-66
2022/05/08 03:28:26;;;;;;;9.88;3.30;;;7.80;99.90;;;;;;5009681;28;20069;-66
2022/05/08 03:30:51;;;;;;;13.05;3.20;;;7.80;99.90;;;;;;5011207;28;20077;-66
2022/05/08 03:33:17;;;;;;;14.07;3.00;;;7.80;99.90;;;;;;5009133;28;20103;-66
2022/05/08 03:35:43;;;;;;;12.98;2.90;;;7.80;99.90;;;;;;5009359;28;20049;-67
2022/05/08 03:38:09;;;;;;;9.68;3.08;;;7.70;99.90;;;;;;5010116;28;20329;-67
2022/05/08 03:40:35;;;;;;;12.52;3.47;;;7.70;99.90;;;;;;5009431;28;20061;-67
2022/05/08 03:43:02;;;;;;;10.27;3.50;;;7.70;99.90;;;;;;5009940;28;20133;-67
2022/05/08 03:45:31;;;;;;;11.10;3.00;;;7.70;99.90;;;;;;5009913;28;20049;-67
2022/05/08 03:47:59;;;;;;;9.85;3.33;;;7.70;99.90;;;;;;4997323;28;20407;-67
2022/05/08 03:50:25;;;;;;;12.00;2.78;;;7.70;99.90;;;;;;4989953;28;20126;-67
2022/05/08 03:52:51;;;;;;;12.25;3.20;;;7.80;99.90;;;;;;4994758;28;20042;-67
2022/05/08 03:55:17;;;;;;;13.20;3.42;;;7.80;99.90;;;;;;5009261;28;20108;-67
2022/05/08 03:57:43;;;;;;;9.23;2.58;;;7.70;99.90;;;;;;5009050;28;20038;-67
2022/05/08 04:00:09;;;;;;;16.10;3.03;;;7.70;99.90;;;;;;5011614;28;20461;-66
2022/05/08 04:02:35;;;;;;;11.52;3.17;;;7.70;99.90;;;;;;5004084;28;20045;-66
2022/05/08 04:05:02;;;;;;;14.15;3.22;;;8.60;99.90;;;;;;4993137;28;20450;-66
2022/05/08 04:07:29;;;;;;;10.20;2.90;;;7.50;99.90;;;;;;4992061;28;20124;-66
2022/05/08 04:09:54;;;;;;;14.25;3.60;;;7.80;99.90;;;;;;5008880;28;20044;-66
2022/05/08 04:12:20;;;;;;;11.98;3.08;;;7.70;99.90;;;;;;5008663;28;20504;-67
2022/05/08 04:14:46;;;;;;;8.63;2.92;;;7.80;99.90;;;;;;5008938;28;20184;-66
2022/05/08 04:17:11;;;;;;;9.90;3.05;;;7.80;99.90;;;;;;5008801;28;20124;-66
2022/05/08 04:19:37;;;;;;;8.38;2.90;;;7.70;99.90;;;;;;4997329;28;20093;-67
2022/05/08 04:24:47;;;;;;;12.20;2.80;;;7.80;99.90;;;;;;5008862;28;20049;-67
2022/05/08 04:27:13;;;;;;;13.80;3.00;;;7.80;99.90;;;;;;5009196;28;20135;-67
2022/05/08 04:29:39;;;;;;;12.45;2.95;;;7.80;99.90;;;;;;4990858;28;20042;-67
2022/05/08 04:32:05;;;;;;;9.32;2.90;;;7.80;99.90;;;;;;4991870;28;20042;-67
2022/05/08 04:34:30;;;;;;;10.60;2.80;;;7.80;99.90;;;;;;5008916;28;20052;-67
2022/05/08 04:36:56;;;;;;;8.55;2.85;;;7.80;99.90;;;;;;5008570;28;20112;-67
2022/05/08 04:39:21;;;;;;;8.98;2.75;;;7.80;99.90;;;;;;5008354;28;20141;-67
2022/05/08 04:41:47;;;;;;;12.27;3.03;;;7.80;99.90;;;;;;5009002;28;20157;-67
2022/05/08 04:44:13;;;;;;;11.90;2.97;;;7.90;99.90;;;;;;5007606;28;20060;-67
2022/05/08 04:46:38;;;;;;;14.38;3.40;;;7.90;99.90;;;;;;5009260;28;20046;-67
2022/05/08 04:49:04;;;;;;;8.30;2.88;;;7.90;99.90;;;;;;5008635;28;20092;-66
2022/05/08 04:51:30;;;;;;;10.63;2.70;;;8.00;99.90;;;;;;5005709;28;20479;-66
2022/05/08 04:53:55;;;;;;;11.90;4.03;;;8.00;99.90;;;;;;4970121;28;20054;-66
2022/05/08 04:56:21;;;;;;;10.60;3.03;;;8.00;99.90;;;;;;5008175;28;20056;-66
2022/05/08 04:58:47;;;;;;;9.30;3.10;;;8.00;99.90;;;;;;5008316;28;20056;-67
2022/05/08 05:01:13;;;;;;;8.65;2.67;;;8.10;99.90;;;;;;5007634;28;20046;-67
2022/05/08 05:03:39;;;;;;;8.70;2.80;;;8.10;99.90;;;;;;5010005;28;20045;-67
2022/05/08 05:06:05;;;;;;;10.77;2.78;;;8.20;99.90;;;;;;5007200;28;20042;-67
2022/05/08 05:08:30;;;;;;;9.63;3.10;;;8.30;99.90;;;;;;5008123;28;20394;-67
2022/05/08 05:10:56;;;;;;;9.13;2.80;;;8.30;99.90;;;;;;5009044;28;20472;-67
2022/05/08 05:13:22;;;;;;;12.85;3.30;;;8.70;99.90;;;;;;4989645;28;20049;-67
2022/05/08 05:15:47;;;;;;;10.82;2.90;;;8.50;99.90;;;;;;5008803;28;20041;-67
2022/05/08 05:18:13;;;;;;;10.32;2.80;;;8.60;99.90;;;;;;5007308;28;20076;-67
2022/05/08 05:20:38;;;;;;;10.57;2.80;;;8.70;99.90;;;;;;5008395;28;20092;-67
2022/05/08 05:23:05;;;;;;;9.25;2.72;;;8.80;99.90;;;;;;5009729;28;20104;-67
2022/05/08 05:25:30;;;;;;;10.85;2.63;;;8.80;99.90;;;;;;5027215;28;20037;-67
2022/05/08 05:27:56;;;;;;;14.90;3.33;;;8.90;99.90;;;;;;5011310;28;20549;-67
2022/05/08 05:30:22;;;;;;;11.77;3.05;;;9.00;99.90;;;;;;4991566;28;20058;-67
2022/05/08 05:32:48;;;;;;;9.07;2.90;;;9.10;99.90;;;;;;5007519;28;20058;-67
2022/05/08 05:35:13;;;;;;;12.10;2.97;;;9.20;99.90;;;;;;5007834;28;20050;-67
2022/05/08 05:37:39;;;;;;;9.93;2.50;;;9.20;99.90;;;;;;5007865;28;20136;-68
2022/05/08 05:40:06;;;;;;;9.90;2.60;;;9.20;99.90;;;;;;5006808;28;20547;-67
2022/05/08 05:42:32;;;;;;;7.03;2.65;;;9.20;99.90;;;;;;4989551;28;20053;-67
2022/05/08 05:44:57;;;;;;;8.38;2.40;;;9.20;99.90;;;;;;4990620;28;20065;-67
2022/05/08 05:50:08;;;;;;;8.85;2.42;;;9.30;99.90;;;;;;4990382;28;20054;-67
2022/05/08 05:52:35;;;;;;;12.23;3.15;;;9.50;99.90;;;;;;5007833;28;20042;-68
2022/05/08 05:55:02;;;;;;;9.02;2.50;;;9.60;99.90;;;;;;5001887;28;20038;-67
2022/05/08 05:57:28;;;;;;;12.30;2.63;;;9.80;99.90;;;;;;5007475;28;20077;-67
2022/05/08 05:59:54;;;;;;;10.73;2.65;;;9.90;99.90;;;;;;5008803;28;20045;-67
2022/05/08 06:02:19;;;;;;;9.18;2.30;;;10.10;99.90;;;;;;5007240;28;20038;-67
2022/05/08 06:04:45;;;;;;;10.50;2.40;;;10.20;99.90;;;;;;5007084;28;20049;-67
2022/05/08 06:07:10;;;;;;;12.70;2.80;;;10.30;99.90;;;;;;5007550;28;20537;-67
2022/05/08 06:09:36;;;;;;;10.57;2.85;;;10.40;99.90;;;;;;4972396;28;20093;-68
2022/05/08 06:12:02;;;;;;;8.93;2.45;;;10.50;99.90;;;;;;5007441;28;20046;-67
2022/05/08 06:14:28;;;;;;;13.38;2.38;;;10.70;99.90;;;;;;5007975;28;20129;-67
2022/05/08 06:16:55;;;;;;;13.85;2.92;;;10.90;99.90;;;;;;5011977;28;20117;-67
2022/05/08 06:19:20;;;;;;;11.55;2.47;;;11.10;99.90;;;;;;5010489;28;20108;-66
2022/05/08 06:21:47;;;;;;;10.77;3.25;;;11.20;99.90;;;;;;5011533;28;20042;-66
2022/05/08 06:24:12;;;;;;;12.23;2.50;;;11.30;99.90;;;;;;5002086;28;20050;-66
2022/05/08 06:26:38;;;;;;;9.10;2.28;;;11.40;99.90;;;;;;5014735;28;20038;-66
2022/05/08 06:29:04;;;;;;;10.93;2.22;;;11.50;99.90;;;;;;5010546;28;20041;-67
2022/05/08 06:31:30;;;;;;;9.63;2.40;;;12.20;99.90;;;;;;4993801;28;20088;-66
2022/05/08 06:33:55;;;;;;;7.25;2.28;;;11.60;99.90;;;;;;5011606;28;20442;-66
2022/05/08 06:36:21;;;;;;;10.00;2.63;;;11.70;99.90;;;;;;4992585;28;20053;-66
2022/05/08 06:38:47;;;;;;;8.65;2.42;;;11.80;99.90;;;;;;5011098;28;20045;-66
2022/05/08 06:41:13;;;;;;;11.55;2.15;;;11.90;99.90;;;;;;5010340;28;20050;-66
2022/05/08 06:43:42;;;;;;;12.05;2.30;;;12.10;99.90;;;;;;5010302;28;20053;-66
2022/05/08 06:46:08;;;;;;;7.43;2.20;;;12.10;99.90;;;;;;5011242;28;20439;-66
2022/05/08 06:48:34;;;;;;;10.77;2.28;;;12.20;99.90;;;;;;4993828;28;20577;-66
2022/05/08 06:51:00;;;;;;;9.70;2.60;;;12.20;99.90;;;;;;5010086;28;20038;-67
2022/05/08 06:53:26;;;;;;;8.23;2.40;;;12.30;99.90;;;;;;4992256;28;20085;-66
2022/05/08 06:55:53;;;;;;;11.65;3.05;;;12.40;99.90;;;;;;4991759;28;20489;-66
2022/05/08 06:58:20;;;;;;;9.02;2.45;;;12.40;99.90;;;;;;5005013;28;20077;-66
2022/05/08 07:03:31;;;;;;;12.68;2.30;;;12.70;99.90;;;;;;5010892;28;20379;-66
2022/05/08 07:05:57;;;;;;;13.38;2.50;;;12.90;99.90;;;;;;5009957;28;20104;-66
2022/05/08 07:08:23;;;;;;;9.40;2.33;;;13.00;99.90;;;;;;5004103;28;20049;-67
2022/05/08 07:10:49;;;;;;;10.00;2.50;;;13.20;99.90;;;;;;5030143;28;20359;-67
2022/05/08 07:13:15;;;;;;;10.57;2.60;;;13.30;99.90;;;;;;5017301;28;20042;-66
2022/05/08 07:15:41;;;;;;;12.43;2.40;;;13.40;99.90;;;;;;5009998;28;20565;-66
2022/05/08 07:18:07;;;;;;;11.88;2.15;;;13.30;99.90;;;;;;5009168;28;20120;-67
2022/05/08 07:20:33;;;;;;;14.07;2.60;;;13.20;99.90;;;;;;5010503;28;20057;-66
2022/05/08 07:22:59;;;;;;;8.23;2.80;;;13.20;99.90;;;;;;5007717;28;20084;-66
2022/05/08 07:25:25;;;;;;;10.23;2.90;;;13.20;99.90;;;;;;5010125;28;20042;-66
2022/05/08 07:27:51;;;;;;;11.88;2.30;;;13.20;99.90;;;;;;5009882;28;20579;-66
2022/05/08 07:30:17;;;;;;;9.25;2.60;;;13.20;99.90;;;;;;5010528;28;20122;-66
2022/05/08 07:32:44;;;;;;;8.23;2.08;;;13.10;99.90;;;;;;5010981;28;20141;-66
2022/05/08 07:37:54;;;;;;;9.07;2.13;;;13.30;99.90;;;;;;5008784;28;20054;-66
2022/05/08 07:40:20;;;;;;;11.95;2.30;;;13.40;99.90;;;;;;5009996;28;20077;-67
2022/05/08 07:42:46;;;;;;;9.98;2.30;;;13.50;99.90;;;;;;4991938;28;20129;-66
2022/05/08 07:45:12;;;;;;;11.10;2.45;;;13.50;99.90;;;;;;4974369;28;20046;-66
2022/05/08 07:47:39;;;;;;;14.13;2.55;;;13.70;99.90;;;;;;4992558;28;20193;-66
2022/05/08 07:50:06;;;;;;;10.75;2.80;;;13.60;99.90;;;;;;4989011;28;20073;-66
2022/05/08 07:52:39;;;;;;;12.32;2.80;;;13.80;99.90;;;;;;4989920;28;20046;-66
2022/05/08 07:55:07;;;;;;;11.70;2.13;;;13.90;99.90;;;;;;5010041;28;20046;-66
2022/05/08 07:57:33;;;;;;;9.80;2.80;;;13.90;99.90;;;;;;4992244;28;20054;-66
2022/05/08 07:59:58;;;;;;;11.43;2.50;;;14.00;99.90;;;;;;5009485;28;20037;-66
2022/05/08 08:02:25;;;;;;;13.73;2.63;;;14.20;99.90;;;;;;5009635;28;20065;-66
2022/05/08 08:04:51;;;;;;;8.20;2.55;;;14.20;99.90;;;;;;5009466;28;20061;-66
2022/05/08 08:07:17;;;;;;;8.70;2.30;;;14.30;99.90;;;;;;5008870;28;20050;-66
2022/05/08 08:09:43;;;;;;;11.38;2.13;;;14.30;99.90;;;;;;5009944;28;20041;-66
2022/05/08 08:12:09;;;;;;;9.13;2.58;;;14.30;99.90;;;;;;5008534;28;20050;-67
2022/05/08 08:14:34;;;;;;;13.43;2.45;;;14.30;99.90;;;;;;5009019;28;20061;-66
2022/05/08 08:17:00;;;;;;;7.15;2.28;;;15.10;99.90;;;;;;5009469;28;20075;-67
2022/05/08 08:19:25;;;;;;;6.18;2.60;;;14.30;99.90;;;;;;4990666;28;20454;-67
2022/05/08 08:21:52;;;;;;;11.15;2.50;;;14.30;99.90;;;;;;5009259;28;20167;-66
2022/05/08 08:24:17;;;;;;;12.20;3.05;;;14.20;99.90;;;;;;5008264;28;20053;-66
2022/05/08 08:26:43;;;;;;;8.88;2.28;;;14.30;99.90;;;;;;4990935;28;20046;-66
2022/05/08 08:29:09;;;;;;;12.10;2.72;;;14.40;99.90;;;;;;5008370;28;20493;-67
2022/05/08 08:31:34;;;;;;;9.48;2.40;;;14.40;99.90;;;;;;4990901;28;20499;-66
2022/05/08 08:34:00;;;;;;;11.57;2.88;;;14.50;99.90;;;;;;5012101;28;20509;-67
2022/05/08 08:36:26;;;;;;;7.30;2.10;;;14.60;99.90;;;;;;5002565;28;20034;-66
2022/05/08 08:38:51;;;;;;;10.27;2.60;;;14.60;99.90;;;;;;4988766;28;20097;-66
2022/05/08 08:41:24;;;;;;;12.63;2.72;;;14.70;99.90;;;;;;4994106;28;20045;-67
2022/05/08 08:49:24;;;;;;;8.60;2.50;;;14.90;99.90;;;;;;5002959;28;20356;-67
2022/05/08 08:51:51;;;;;;;12.90;2.50;;;16.10;99.90;;;;;;5004968;28;20037;-67
2022/05/08 08:54:21;;;;;;;8.63;2.25;;;15.20;99.90;;;;;;4999708;28;20041;-68
2022/05/08 08:56:48;;;;;;;12.52;2.33;;;15.40;99.90;;;;;;5028348;28;20045;-67
2022/05/08 08:59:13;;;;;;;10.18;2.17;;;15.60;99.90;;;;;;5005793;28;20054;-67
2022/05/08 09:01:43;;;;;;;9.80;2.53;;;16.80;99.90;;;;;;5007718;28;20120;-67
2022/05/08 09:04:10;;;;;;;11.50;2.75;;;15.70;99.90;;;;;;5003338;28;20115;-67
2022/05/08 09:06:47;;;;;;;10.05;2.55;;;15.80;99.90;;;;;;5008224;28;20052;-67
2022/05/08 09:09:29;;;;;;;9.80;2.50;;;15.90;99.90;;;;;;5006781;28;20418;-68
2022/05/08 09:11:56;;;;;;;12.27;2.60;;;16.00;99.90;;;;;;5008719;28;20050;-68
2022/05/08 09:14:33;;;;;;;7.00;2.30;;;16.00;99.90;;;;;;5006798;28;20049;-69
2022/05/08 09:17:00;;;;;;;12.80;2.70;;;16.00;99.90;;;;;;5008060;28;20084;-69
2022/05/08 09:19:37;;;;;;;12.05;2.72;;;17.10;99.90;;;;;;5006501;28;20546;-68
2022/05/08 09:22:07;;;;;;;11.30;2.65;;;16.20;99.90;;;;;;5011477;28;20099;-68
2022/05/08 09:24:35;;;;;;;13.07;2.33;;;16.40;99.70;;;;;;5006642;28;20053;-69
2022/05/08 09:27:14;;;;;;;11.68;2.40;;;16.60;99.80;;;;;;4990106;28;20041;-68
2022/05/08 09:29:41;;;;;;;12.60;2.40;;;16.70;99.60;;;;;;5006380;28;20437;-68
2022/05/08 09:32:07;;;;;;;15.38;2.78;;;16.70;99.50;;;;;;4991973;28;20107;-68
2022/05/08 09:34:57;;;;;;;11.75;2.88;;;16.70;99.40;;;;;;5008977;28;20061;-68
2022/05/08 09:37:24;;;;;;;15.15;2.83;;;16.70;99.20;;;;;;4972201;28;20075;-68
2022/05/08 09:39:50;;;;;;;11.10;2.90;;;16.70;99.30;;;;;;4985587;28;20407;-68
2022/05/08 09:42:38;;;;;;;12.18;2.70;;;16.90;99.00;;;;;;4999503;28;20046;-68
2022/05/08 09:45:07;;;;;;;12.32;2.67;;;16.90;99.30;;;;;;4988114;28;20344;-68
2022/05/08 09:47:43;;;;;;;13.15;3.10;;;17.10;98.20;;;;;;4970717;28;20050;-68
2022/05/08 09:50:10;;;;;;;9.63;2.47;;;17.20;98.20;;;;;;4998388;28;20107;-68
2022/05/08 09:52:41;;;;;;;9.50;2.40;;;17.40;97.50;;;;;;4988458;28;20042;-68
2022/05/08 09:55:12;;;;;;;14.52;2.53;;;17.40;97.60;;;;;;4989939;28;20132;-68
2022/05/08 09:57:39;;;;;;;10.93;2.45;;;17.40;97.50;;;;;;5006890;28;20073;-68
2022/05/08 10:00:07;;;;;;;8.60;2.35;;;17.70;97.60;;;;;;4990128;28;20125;-68
2022/05/08 10:02:36;;;;;;;8.80;2.50;;;17.80;97.30;;;;;;4990398;28;20151;-67
2022/05/08 10:05:02;;;;;;;10.30;2.53;;;18.00;97.30;;;;;;4993997;28;20081;-68
2022/05/08 10:07:28;;;;;;;10.60;2.47;;;18.30;96.50;;;;;;4975578;28;20042;-67
2022/05/08 10:15:32;;;;;;;8.25;2.40;;;21.20;93.70;;;;;;5009012;28;20054;-68
2022/05/08 10:18:29;;;;;;;10.40;2.70;;;24.10;91.40;;;;;;5007313;28;20049;-69
2022/05/08 10:21:07;;;;;;;10.70;2.80;;;27.50;88.20;;;;;;5007357;28;20133;-69
2022/05/08 10:23:41;;;;;;;9.18;2.47;;;30.50;73.00;;;;;;5018363;28;20192;-70
2022/05/08 10:26:21;;;;;;;9.75;2.67;;;32.60;64.60;;;;;;5007382;28;20082;-70
2022/05/08 10:29:02;;;;;;;10.60;2.92;;;34.40;57.60;;;;;;4990434;28;20120;-70
2022/05/08 10:31:43;;;;;;;10.82;2.80;;;35.80;54.80;;;;;;5007855;28;20072;-71
2022/05/08 10:34:10;;;;;;;12.18;2.70;;;37.40;54.40;;;;;;5007972;28;20106;-70
2022/05/08 10:36:36;;;;;;;11.65;2.60;;;38.30;51.50;;;;;;4989949;28;20073;-71
2022/05/08 10:39:41;;;;;;;14.98;2.70;;;39.40;48.80;;;;;;4988146;28;20081;-71
2022/05/08 10:42:39;;;;;;;9.00;2.42;;;39.50;44.90;;;;;;5001829;28;20104;-71
2022/05/08 10:45:05;;;;;;;5.57;2.10;;;39.70;43.20;;;;;;5007348;28;20053;-71
2022/05/08 10:50:01;;;;;;;10.85;2.67;;;39.60;42.80;;;;;;5007175;28;20065;-71
2022/05/08 10:52:26;;;;;;;9.27;2.58;;;39.40;42.40;;;;;;5006225;28;20394;-71
2022/05/08 10:54:59;;;;;;;9.88;2.38;;;39.70;43.10;;;;;;5006995;28;20045;-71
2022/05/08 10:57:32;;;;;;;10.95;2.80;;;39.80;41.60;;;;;;4972757;28;20090;-70
2022/05/08 11:00:02;;;;;;;8.85;2.47;;;39.90;40.70;;;;;;5007900;28;20046;-71
2022/05/08 11:02:47;;;;;;;8.68;2.45;;;39.40;40.20;;;;;;5009962;28;20497;-70
2022/05/08 11:05:19;;;;;;;7.88;2.15;;;39.90;39.20;;;;;;5010233;28;20061;-69
2022/05/08 11:07:59;;;;;;;7.53;2.17;;;39.70;39.00;;;;;;5009863;28;20051;-69
2022/05/08 11:10:31;;;;;;;9.35;2.45;;;40.50;38.20;;;;;;5010377;28;20057;-69
2022/05/08 11:13:03;;;;;;;8.50;2.67;;;40.50;38.90;;;;;;5010502;28;20049;-67
2022/05/08 11:15:57;;;;;;;9.02;3.00;;;41.00;38.90;;;;;;5010074;28;20402;-67
2022/05/08 11:18:26;;;;;;;9.65;2.40;;;42.00;39.90;;;;;;4988971;28;20053;-67
2022/05/08 11:20:57;;;;;;;9.50;2.60;;;41.90;38.20;;;;;;4990507;28;20073;-68
2022/05/08 11:23:44;;;;;;;7.80;2.30;;;41.20;38.00;;;;;;5008436;28;20076;-67
2022/05/08 11:26:11;;;;;;;6.90;2.45;;;39.90;38.70;;;;;;5011917;28;20042;-68
2022/05/08 11:28:49;;;;;;;8.13;2.40;;;38.20;38.50;;;;;;5010384;28;20042;-68
2022/05/08 11:31:17;;;;;;;7.55;2.25;;;36.70;37.60;;;;;;4998554;28;20061;-68
2022/05/08 11:36:30;;;;;;;8.18;2.55;;;33.30;40.30;;;;;;5011589;28;20478;-69
2022/05/08 11:38:57;;;;;;;7.25;2.20;;;32.00;41.70;;;;;;5009533;28;20065;-69
2022/05/08 11:41:28;;;;;;;10.80;2.42;;;30.50;42.80;;;;;;4991985;28;20061;-69
2022/05/08 11:43:55;;;;;;;9.18;2.38;;;29.40;44.10;;;;;;5009691;28;20046;-69
2022/05/08 11:46:34;;;;;;;7.90;2.30;;;28.70;45.40;;;;;;5009272;28;20034;-69
2022/05/08 11:49:01;;;;;;;7.72;2.28;;;29.80;44.60;;;;;;4992426;28;20046;-69
2022/05/08 11:51:40;;;;;;;10.85;2.58;;;31.20;43.90;;;;;;5008385;28;20076;-70
2022/05/08 11:54:16;;;;;;;10.07;2.30;;;33.00;42.20;;;;;;5009022;28;20064;-66
2022/05/08 11:56:41;;;;;;;8.52;2.42;;;34.20;40.70;;;;;;5009568;28;20053;-67
2022/05/08 11:59:16;;;;;;;7.93;2.42;;;35.50;40.20;;;;;;5008701;28;20070;-68
2022/05/08 12:01:49;;;;;;;10.85;2.33;;;36.30;40.10;;;;;;5009556;28;20052;-68
2022/05/08 12:04:26;;;;;;;10.23;2.40;;;36.90;39.80;;;;;;5008483;28;20064;-68
2022/05/08 12:07:14;;;;;;;8.23;2.60;;;37.60;38.90;;;;;;5009858;28;20064;-68
2022/05/08 12:09:51;;;;;;;9.57;2.50;;;37.00;39.30;;;;;;5008268;28;20056;-68
2022/05/08 12:12:23;;;;;;;11.35;2.85;;;37.00;39.50;;;;;;5006623;28;20086;-68
2022/05/08 12:14:50;;;;;;;9.25;2.70;;;38.00;38.70;;;;;;5008817;28;20137;-68
2022/05/08 12:17:16;;;;;;;9.48;2.30;;;37.80;38.50;;;;;;5009526;28;20429;-67
2022/05/08 12:20:00;;;;;;;9.90;2.55;;;37.80;38.70;;;;;;5009290;28;20129;-67
2022/05/08 12:22:28;;;;;;;9.50;2.55;;;38.10;38.30;;;;;;4990837;28;20061;-67
2022/05/08 12:24:55;;;;;;;9.88;2.40;;;38.00;38.30;;;;;;5010767;28;20176;-67
2022/05/08 12:27:21;;;;;;;7.05;2.10;;;38.00;38.50;;;;;;5009816;28;20049;-66
2022/05/08 12:29:47;;;;;;;10.30;2.80;;;38.20;38.20;;;;;;5010189;28;20042;-67
2022/05/08 12:32:14;;;;;;;11.18;2.70;;;37.30;37.80;;;;;;4974972;28;20137;-67
2022/05/08 12:34:41;;;;;;;7.65;2.30;;;34.80;38.50;;;;;;5008772;28;20056;-67
2022/05/08 12:37:12;;;;;;;11.02;2.20;;;32.90;39.50;;;;;;5008827;28;20050;-67
2022/05/08 12:39:38;;;;;;;8.90;2.38;;;30.60;40.80;;;;;;5007022;28;20064;-68
2022/05/08 12:42:04;;;;;;;10.60;2.83;;;28.70;42.10;;;;;;4987457;28;20057;-71
2022/05/08 12:44:31;;;;;;;8.25;2.30;;;27.30;43.50;;;;;;4970751;28;20050;-70
2022/05/08 12:46:57;;;;;;;9.73;2.40;;;26.10;44.70;;;;;;4994378;28;20509;-71
2022/05/08 12:49:22;;;;;;;7.63;2.20;;;25.20;45.90;;;;;;5005433;28;20147;-69
2022/05/08 12:51:48;;;;;;;8.85;2.50;;;24.40;46.60;;;;;;5009240;28;20097;-69
2022/05/08 12:54:14;;;;;;;8.13;2.15;;;23.50;47.60;;;;;;4973720;28;20053;-70
2022/05/08 12:56:40;;;;;;;9.40;2.40;;;22.90;48.30;;;;;;4989935;28;20128;-69
2022/05/08 13:01:50;;;;;;;10.63;2.65;;;22.10;50.00;;;;;;4985939;28;20038;-70
2022/05/08 13:04:16;;;;;;;7.28;2.40;;;22.00;50.90;;;;;;5002444;28;20049;-70
2022/05/08 13:06:41;;;;;;;11.70;2.60;;;21.90;51.10;;;;;;5007919;28;20052;-70
2022/05/08 13:09:07;;;;;;;8.23;2.58;;;22.10;51.00;;;;;;5002225;28;20173;-69
2022/05/08 13:11:35;;;;;;;10.15;2.50;;;21.80;51.30;;;;;;4987091;28;20409;-69
2022/05/08 13:14:01;;;;;;;9.82;2.42;;;21.80;51.60;;;;;;5006709;28;20058;-70
2022/05/08 13:16:27;;;;;;;9.90;2.40;;;21.70;51.50;;;;;;5002980;28;20351;-69
2022/05/08 13:18:52;;;;;;;10.15;2.65;;;21.60;51.20;;;;;;4986879;28;20129;-70
2022/05/08 13:21:18;;;;;;;9.40;2.65;;;21.50;51.30;;;;;;4995624;28;20068;-70
2022/05/08 13:23:44;;;;;;;9.55;2.65;;;21.20;51.80;;;;;;4985676;28;20117;-68
2022/05/08 13:26:09;;;;;;;7.72;2.40;;;21.20;52.50;;;;;;4994561;28;20042;-69